sensor_id;sensor_type;location;lat;lon;timestamp;P1;durP1;ratioP1;P2;durP2;ratioP2
14883;SDS011;7534;50.762;7.000;2023-06-14T00:01:50;6.85;;;6.03;;
14883;SDS011;7534;50.762;7.000;2023-06-14T00:04:16;7.30;;;6.60;;
14883;SDS011;7534;50.762;7.000;2023-06-14T00:06:42;7.30;;;6.50;;
14883;SDS011;7534;50.762;7.000;2023-06-14T00:09:12;7.23;;;5.97;;
14883;SDS011;7534;50.762;7.000;2023-06-14T00:11:38;9.10;;;6.03;;
14883;SDS011;7534;50.762;7.000;2023-06-14T00:14:05;6.43;;;5.83;;
14883;SDS011;7534;50.762;7.000;2023-06-14T00:16:31;6.70;;;6.10;;
14883;SDS011;7534;50.762;7.000;2023-06-14T00:18:58;6.90;;;6.20;;
14883;SDS011;7534;50.762;7.000;2023-06-14T00:21:24;8.10;;;5.97;;
14883;SDS011;7534;50.762;7.000;2023-06-14T00:23:53;6.47;;;5.78;;
14883;SDS011;7534;50.762;7.000;2023-06-14T00:26:19;7.27;;;6.57;;
14883;SDS011;7534;50.762;7.000;2023-06-14T00:28:44;6.70;;;6.17;;
14883;SDS011;7534;50.762;7.000;2023-06-14T00:31:10;8.15;;;6.30;;
14883;SDS011;7534;50.762;7.000;2023-06-14T00:33:37;7.30;;;6.60;;
14883;SDS011;7534;50.762;7.000;2023-06-14T00:36:02;6.73;;;6.17;;
14883;SDS011;7534;50.762;7.000;2023-06-14T00:38:28;6.93;;;6.23;;
14883;SDS011;7534;50.762;7.000;2023-06-14T00:40:54;7.00;;;6.33;;
14883;SDS011;7534;50.762;7.000;2023-06-14T00:43:19;6.70;;;6.10;;
14883;SDS011;7534;50.762;7.000;2023-06-14T00:45:45;7.40;;;6.13;;
14883;SDS011;7534;50.762;7.000;2023-06-14T00:48:12;6.73;;;6.17;;
14883;SDS011;7534;50.762;7.000;2023-06-14T00:50:39;8.63;;;6.30;;
14883;SDS011;7534;50.762;7.000;2023-06-14T00:53:06;8.07;;;6.60;;
14883;SDS011;7534;50.762;7.000;2023-06-14T00:55:32;6.90;;;6.30;;
14883;SDS011;7534;50.762;7.000;2023-06-14T00:57:58;8.97;;;6.20;;
14883;SDS011;7534;50.762;7.000;2023-06-14T01:00:24;7.03;;;6.50;;
14883;SDS011;7534;50.762;7.000;2023-06-14T01:02:49;7.27;;;6.60;;
14883;SDS011;7534;50.762;7.000;2023-06-14T01:05:15;6.87;;;6.27;;
14883;SDS011;7534;50.762;7.000;2023-06-14T01:13:21;7.00;;;6.37;;
14883;SDS011;7534;50.762;7.000;2023-06-14T01:15:57;7.33;;;6.63;;
14883;SDS011;7534;50.762;7.000;2023-06-14T01:18:23;7.23;;;6.63;;
14883;SDS011;7534;50.762;7.000;2023-06-14T01:20:51;7.93;;;6.27;;
14883;SDS011;7534;50.762;7.000;2023-06-14T01:23:20;7.33;;;6.63;;
14883;SDS011;7534;50.762;7.000;2023-06-14T01:25:48;9.27;;;6.87;;
14883;SDS011;7534;50.762;7.000;2023-06-14T01:28:19;7.23;;;6.53;;
14883;SDS011;7534;50.762;7.000;2023-06-14T01:30:47;6.63;;;6.03;;
14883;SDS011;7534;50.762;7.000;2023-06-14T01:33:21;8.23;;;6.70;;
14883;SDS011;7534;50.762;7.000;2023-06-14T01:35:52;7.17;;;6.57;;
14883;SDS011;7534;50.762;7.000;2023-06-14T01:38:19;9.50;;;6.37;;
14883;SDS011;7534;50.762;7.000;2023-06-14T01:40:55;7.00;;;6.30;;
14883;SDS011;7534;50.762;7.000;2023-06-14T01:43:24;6.80;;;6.23;;
14883;SDS011;7534;50.762;7.000;2023-06-14T01:45:52;7.10;;;6.40;;
14883;SDS011;7534;50.762;7.000;2023-06-14T01:48:20;6.97;;;6.33;;
14883;SDS011;7534;50.762;7.000;2023-06-14T01:50:47;7.43;;;6.63;;
14883;SDS011;7534;50.762;7.000;2023-06-14T01:53:14;7.33;;;6.13;;
14883;SDS011;7534;50.762;7.000;2023-06-14T01:55:40;7.47;;;6.50;;
14883;SDS011;7534;50.762;7.000;2023-06-14T01:58:08;6.83;;;6.20;;
14883;SDS011;7534;50.762;7.000;2023-06-14T02:00:35;9.37;;;6.90;;
14883;SDS011;7534;50.762;7.000;2023-06-14T02:03:01;6.90;;;6.30;;
14883;SDS011;7534;50.762;7.000;2023-06-14T02:05:29;7.07;;;6.47;;
14883;SDS011;7534;50.762;7.000;2023-06-14T02:07:55;7.40;;;6.70;;
14883;SDS011;7534;50.762;7.000;2023-06-14T02:10:21;7.40;;;6.70;;
14883;SDS011;7534;50.762;7.000;2023-06-14T02:12:46;7.00;;;6.30;;
14883;SDS011;7534;50.762;7.000;2023-06-14T02:15:12;6.87;;;6.13;;
14883;SDS011;7534;50.762;7.000;2023-06-14T02:17:47;7.40;;;6.70;;
14883;SDS011;7534;50.762;7.000;2023-06-14T02:20:14;7.37;;;6.60;;
14883;SDS011;7534;50.762;7.000;2023-06-14T02:22:40;7.40;;;6.70;;
14883;SDS011;7534;50.762;7.000;2023-06-14T02:25:06;6.93;;;6.23;;
14883;SDS011;7534;50.762;7.000;2023-06-14T02:27:33;7.40;;;6.70;;
14883;SDS011;7534;50.762;7.000;2023-06-14T02:30:00;6.93;;;6.33;;
14883;SDS011;7534;50.762;7.000;2023-06-14T02:32:26;7.33;;;6.63;;
14883;SDS011;7534;50.762;7.000;2023-06-14T02:34:52;7.27;;;6.60;;
14883;SDS011;7534;50.762;7.000;2023-06-14T02:37:19;7.00;;;6.33;;
14883;SDS011;7534;50.762;7.000;2023-06-14T02:39:45;7.43;;;6.80;;
14883;SDS011;7534;50.762;7.000;2023-06-14T02:42:11;6.73;;;6.13;;
14883;SDS011;7534;50.762;7.000;2023-06-14T02:44:37;7.53;;;6.80;;
14883;SDS011;7534;50.762;7.000;2023-06-14T02:47:03;7.40;;;6.80;;
14883;SDS011;7534;50.762;7.000;2023-06-14T02:49:30;7.70;;;7.00;;
14883;SDS011;7534;50.762;7.000;2023-06-14T02:51:55;7.70;;;6.90;;
14883;SDS011;7534;50.762;7.000;2023-06-14T02:54:21;7.97;;;7.27;;
14883;SDS011;7534;50.762;7.000;2023-06-14T02:56:48;7.47;;;6.73;;
14883;SDS011;7534;50.762;7.000;2023-06-14T02:59:13;8.60;;;6.60;;
14883;SDS011;7534;50.762;7.000;2023-06-14T03:01:41;8.10;;;7.40;;
14883;SDS011;7534;50.762;7.000;2023-06-14T03:04:07;7.20;;;6.60;;
14883;SDS011;7534;50.762;7.000;2023-06-14T03:06:33;7.40;;;6.80;;
14883;SDS011;7534;50.762;7.000;2023-06-14T03:08:59;7.97;;;7.17;;
14883;SDS011;7534;50.762;7.000;2023-06-14T03:11:29;7.93;;;7.23;;
14883;SDS011;7534;50.762;7.000;2023-06-14T03:13:57;7.83;;;7.07;;
14883;SDS011;7534;50.762;7.000;2023-06-14T03:16:24;7.70;;;7.10;;
14883;SDS011;7534;50.762;7.000;2023-06-14T03:18:52;7.70;;;6.90;;
14883;SDS011;7534;50.762;7.000;2023-06-14T03:21:18;8.07;;;7.27;;
14883;SDS011;7534;50.762;7.000;2023-06-14T03:23:45;8.60;;;7.73;;
14883;SDS011;7534;50.762;7.000;2023-06-14T03:26:12;7.87;;;7.07;;
14883;SDS011;7534;50.762;7.000;2023-06-14T03:28:39;7.43;;;6.83;;
14883;SDS011;7534;50.762;7.000;2023-06-14T03:31:15;8.50;;;7.50;;
14883;SDS011;7534;50.762;7.000;2023-06-14T03:33:41;8.00;;;7.20;;
14883;SDS011;7534;50.762;7.000;2023-06-14T03:36:06;7.87;;;7.17;;
14883;SDS011;7534;50.762;7.000;2023-06-14T03:38:32;7.93;;;7.07;;
14883;SDS011;7534;50.762;7.000;2023-06-14T03:40:58;8.60;;;7.20;;
14883;SDS011;7534;50.762;7.000;2023-06-14T03:43:24;8.27;;;7.53;;
14883;SDS011;7534;50.762;7.000;2023-06-14T03:45:50;9.23;;;7.17;;
14883;SDS011;7534;50.762;7.000;2023-06-14T03:48:17;9.30;;;7.43;;
14883;SDS011;7534;50.762;7.000;2023-06-14T03:50:42;7.70;;;7.00;;
14883;SDS011;7534;50.762;7.000;2023-06-14T03:53:09;8.00;;;7.10;;
14883;SDS011;7534;50.762;7.000;2023-06-14T03:55:35;7.90;;;7.13;;
14883;SDS011;7534;50.762;7.000;2023-06-14T03:58:02;7.33;;;6.73;;
14883;SDS011;7534;50.762;7.000;2023-06-14T04:00:28;7.90;;;7.20;;
14883;SDS011;7534;50.762;7.000;2023-06-14T04:02:54;7.50;;;6.77;;
14883;SDS011;7534;50.762;7.000;2023-06-14T04:05:20;7.27;;;6.67;;
14883;SDS011;7534;50.762;7.000;2023-06-14T04:07:45;7.20;;;6.57;;
14883;SDS011;7534;50.762;7.000;2023-06-14T04:10:13;8.03;;;6.80;;
14883;SDS011;7534;50.762;7.000;2023-06-14T04:12:41;7.40;;;6.70;;
14883;SDS011;7534;50.762;7.000;2023-06-14T04:15:07;7.70;;;7.00;;
14883;SDS011;7534;50.762;7.000;2023-06-14T04:17:34;11.20;;;6.70;;
14883;SDS011;7534;50.762;7.000;2023-06-14T04:20:00;9.23;;;7.00;;
14883;SDS011;7534;50.762;7.000;2023-06-14T04:22:29;7.90;;;7.10;;
14883;SDS011;7534;50.762;7.000;2023-06-14T04:24:56;7.53;;;6.83;;
14883;SDS011;7534;50.762;7.000;2023-06-14T04:27:23;7.93;;;7.00;;
14883;SDS011;7534;50.762;7.000;2023-06-14T04:29:53;8.40;;;7.47;;
14883;SDS011;7534;50.762;7.000;2023-06-14T04:32:24;7.57;;;6.80;;
14883;SDS011;7534;50.762;7.000;2023-06-14T04:35:03;9.33;;;7.00;;
14883;SDS011;7534;50.762;7.000;2023-06-14T04:37:33;7.32;;;6.57;;
14883;SDS011;7534;50.762;7.000;2023-06-14T04:39:59;7.18;;;6.57;;
14883;SDS011;7534;50.762;7.000;2023-06-14T04:42:25;7.68;;;6.78;;
14883;SDS011;7534;50.762;7.000;2023-06-14T04:44:56;10.50;;;6.15;;
14883;SDS011;7534;50.762;7.000;2023-06-14T04:47:22;7.22;;;6.47;;
14883;SDS011;7534;50.762;7.000;2023-06-14T04:49:50;7.97;;;6.38;;
14883;SDS011;7534;50.762;7.000;2023-06-14T04:52:18;7.10;;;6.25;;
14883;SDS011;7534;50.762;7.000;2023-06-14T04:54:46;7.43;;;6.10;;
14883;SDS011;7534;50.762;7.000;2023-06-14T04:57:14;7.30;;;6.60;;
14883;SDS011;7534;50.762;7.000;2023-06-14T04:59:42;7.07;;;6.38;;
14883;SDS011;7534;50.762;7.000;2023-06-14T05:02:09;7.68;;;6.32;;
14883;SDS011;7534;50.762;7.000;2023-06-14T05:04:36;10.80;;;6.80;;
14883;SDS011;7534;50.762;7.000;2023-06-14T05:07:05;12.00;;;6.38;;
14883;SDS011;7534;50.762;7.000;2023-06-14T05:09:33;11.95;;;7.30;;
14883;SDS011;7534;50.762;7.000;2023-06-14T05:11:59;8.13;;;6.45;;
14883;SDS011;7534;50.762;7.000;2023-06-14T05:14:25;10.48;;;6.47;;
14883;SDS011;7534;50.762;7.000;2023-06-14T05:16:51;7.00;;;5.72;;
14883;SDS011;7534;50.762;7.000;2023-06-14T05:19:18;9.35;;;6.10;;
14883;SDS011;7534;50.762;7.000;2023-06-14T05:21:45;9.95;;;5.43;;
14883;SDS011;7534;50.762;7.000;2023-06-14T05:24:12;7.75;;;5.15;;
14883;SDS011;7534;50.762;7.000;2023-06-14T05:26:42;6.78;;;5.10;;
14883;SDS011;7534;50.762;7.000;2023-06-14T05:29:08;6.47;;;5.35;;
14883;SDS011;7534;50.762;7.000;2023-06-14T05:31:37;5.65;;;4.70;;
14883;SDS011;7534;50.762;7.000;2023-06-14T05:34:02;6.30;;;4.80;;
14883;SDS011;7534;50.762;7.000;2023-06-14T05:36:29;5.32;;;4.75;;
14883;SDS011;7534;50.762;7.000;2023-06-14T05:38:55;10.32;;;4.90;;
14883;SDS011;7534;50.762;7.000;2023-06-14T05:41:24;6.47;;;5.45;;
14883;SDS011;7534;50.762;7.000;2023-06-14T05:43:51;6.78;;;4.70;;
14883;SDS011;7534;50.762;7.000;2023-06-14T05:46:19;7.18;;;4.95;;
14883;SDS011;7534;50.762;7.000;2023-06-14T05:48:50;6.22;;;4.88;;
14883;SDS011;7534;50.762;7.000;2023-06-14T05:51:17;5.18;;;4.75;;
14883;SDS011;7534;50.762;7.000;2023-06-14T05:53:48;8.38;;;4.70;;
14883;SDS011;7534;50.762;7.000;2023-06-14T05:56:15;5.97;;;4.60;;
14883;SDS011;7534;50.762;7.000;2023-06-14T05:58:43;7.40;;;4.68;;
14883;SDS011;7534;50.762;7.000;2023-06-14T06:01:10;6.18;;;4.80;;
14883;SDS011;7534;50.762;7.000;2023-06-14T06:03:36;4.55;;;4.15;;
14883;SDS011;7534;50.762;7.000;2023-06-14T06:06:02;5.80;;;4.82;;
14883;SDS011;7534;50.762;7.000;2023-06-14T06:08:28;6.90;;;4.72;;
14883;SDS011;7534;50.762;7.000;2023-06-14T06:10:55;7.90;;;4.60;;
14883;SDS011;7534;50.762;7.000;2023-06-14T06:13:21;5.82;;;4.45;;
14883;SDS011;7534;50.762;7.000;2023-06-14T06:15:47;5.85;;;4.65;;
14883;SDS011;7534;50.762;7.000;2023-06-14T06:18:13;4.70;;;4.30;;
14883;SDS011;7534;50.762;7.000;2023-06-14T06:20:39;7.63;;;4.95;;
14883;SDS011;7534;50.762;7.000;2023-06-14T06:23:05;10.13;;;4.53;;
14883;SDS011;7534;50.762;7.000;2023-06-14T06:25:30;6.32;;;4.20;;
14883;SDS011;7534;50.762;7.000;2023-06-14T06:27:56;6.75;;;4.35;;
14883;SDS011;7534;50.762;7.000;2023-06-14T06:30:23;5.07;;;4.60;;
14883;SDS011;7534;50.762;7.000;2023-06-14T06:32:50;6.07;;;4.38;;
14883;SDS011;7534;50.762;7.000;2023-06-14T06:35:16;8.73;;;4.38;;
14883;SDS011;7534;50.762;7.000;2023-06-14T06:37:42;6.20;;;4.28;;
14883;SDS011;7534;50.762;7.000;2023-06-14T06:40:08;5.25;;;3.80;;
14883;SDS011;7534;50.762;7.000;2023-06-14T06:42:34;6.05;;;4.20;;
14883;SDS011;7534;50.762;7.000;2023-06-14T06:45:00;11.65;;;4.47;;
14883;SDS011;7534;50.762;7.000;2023-06-14T06:47:26;5.45;;;4.00;;
14883;SDS011;7534;50.762;7.000;2023-06-14T06:49:52;5.75;;;4.28;;
14883;SDS011;7534;50.762;7.000;2023-06-14T06:52:18;7.45;;;4.30;;
14883;SDS011;7534;50.762;7.000;2023-06-14T06:54:44;4.38;;;3.97;;
14883;SDS011;7534;50.762;7.000;2023-06-14T06:57:10;4.40;;;3.83;;
14883;SDS011;7534;50.762;7.000;2023-06-14T06:59:36;6.38;;;3.78;;
14883;SDS011;7534;50.762;7.000;2023-06-14T07:02:03;4.15;;;3.70;;
14883;SDS011;7534;50.762;7.000;2023-06-14T07:04:29;4.90;;;4.03;;
14883;SDS011;7534;50.762;7.000;2023-06-14T07:06:56;4.25;;;3.70;;
14883;SDS011;7534;50.762;7.000;2023-06-14T07:09:22;4.13;;;3.80;;
14883;SDS011;7534;50.762;7.000;2023-06-14T07:11:49;5.78;;;3.72;;
14883;SDS011;7534;50.762;7.000;2023-06-14T07:14:15;4.00;;;3.13;;
14883;SDS011;7534;50.762;7.000;2023-06-14T07:16:41;4.65;;;3.60;;
14883;SDS011;7534;50.762;7.000;2023-06-14T07:19:08;7.10;;;3.92;;
14883;SDS011;7534;50.762;7.000;2023-06-14T07:21:35;5.35;;;3.55;;
14883;SDS011;7534;50.762;7.000;2023-06-14T07:24:02;5.97;;;3.80;;
14883;SDS011;7534;50.762;7.000;2023-06-14T07:26:31;3.80;;;3.08;;
14883;SDS011;7534;50.762;7.000;2023-06-14T07:28:57;9.23;;;3.47;;
14883;SDS011;7534;50.762;7.000;2023-06-14T07:31:22;3.80;;;3.50;;
14883;SDS011;7534;50.762;7.000;2023-06-14T07:33:48;5.00;;;3.70;;
14883;SDS011;7534;50.762;7.000;2023-06-14T07:36:14;3.65;;;3.35;;
14883;SDS011;7534;50.762;7.000;2023-06-14T07:38:40;4.20;;;3.20;;
14883;SDS011;7534;50.762;7.000;2023-06-14T07:41:06;4.95;;;3.33;;
14883;SDS011;7534;50.762;7.000;2023-06-14T07:43:32;7.25;;;3.50;;
14883;SDS011;7534;50.762;7.000;2023-06-14T07:46:00;3.80;;;3.50;;
14883;SDS011;7534;50.762;7.000;2023-06-14T07:48:26;3.60;;;3.30;;
14883;SDS011;7534;50.762;7.000;2023-06-14T07:50:51;4.10;;;3.20;;
14883;SDS011;7534;50.762;7.000;2023-06-14T07:53:18;4.82;;;3.20;;
14883;SDS011;7534;50.762;7.000;2023-06-14T07:55:44;3.60;;;3.28;;
14883;SDS011;7534;50.762;7.000;2023-06-14T07:58:09;4.45;;;3.22;;
14883;SDS011;7534;50.762;7.000;2023-06-14T08:00:35;3.55;;;3.25;;
14883;SDS011;7534;50.762;7.000;2023-06-14T08:03:01;3.67;;;2.95;;
14883;SDS011;7534;50.762;7.000;2023-06-14T08:05:28;3.80;;;3.40;;
14883;SDS011;7534;50.762;7.000;2023-06-14T08:07:54;3.50;;;2.97;;
14883;SDS011;7534;50.762;7.000;2023-06-14T08:10:20;4.68;;;3.33;;
14883;SDS011;7534;50.762;7.000;2023-06-14T08:12:47;6.10;;;3.50;;
14883;SDS011;7534;50.762;7.000;2023-06-14T08:15:16;3.50;;;3.20;;
14883;SDS011;7534;50.762;7.000;2023-06-14T08:17:45;3.75;;;3.45;;
14883;SDS011;7534;50.762;7.000;2023-06-14T08:20:11;3.92;;;3.10;;
14883;SDS011;7534;50.762;7.000;2023-06-14T08:22:38;5.07;;;3.33;;
14883;SDS011;7534;50.762;7.000;2023-06-14T08:25:07;13.30;;;3.45;;
14883;SDS011;7534;50.762;7.000;2023-06-14T08:27:34;4.13;;;3.10;;
14883;SDS011;7534;50.762;7.000;2023-06-14T08:30:00;5.40;;;3.28;;
14883;SDS011;7534;50.762;7.000;2023-06-14T08:32:27;3.50;;;2.90;;
14883;SDS011;7534;50.762;7.000;2023-06-14T08:34:53;3.20;;;2.88;;
14883;SDS011;7534;50.762;7.000;2023-06-14T08:37:19;3.10;;;2.65;;
14883;SDS011;7534;50.762;7.000;2023-06-14T08:39:45;4.00;;;2.90;;
14883;SDS011;7534;50.762;7.000;2023-06-14T08:42:11;2.83;;;2.60;;
14883;SDS011;7534;50.762;7.000;2023-06-14T08:44:39;3.05;;;2.70;;
14883;SDS011;7534;50.762;7.000;2023-06-14T08:47:05;2.97;;;2.67;;
14883;SDS011;7534;50.762;7.000;2023-06-14T08:49:33;3.28;;;2.60;;
14883;SDS011;7534;50.762;7.000;2023-06-14T08:52:03;2.92;;;2.63;;
14883;SDS011;7534;50.762;7.000;2023-06-14T08:54:35;3.30;;;2.67;;
14883;SDS011;7534;50.762;7.000;2023-06-14T08:57:08;2.80;;;2.60;;
14883;SDS011;7534;50.762;7.000;2023-06-14T08:59:40;3.35;;;2.40;;
14883;SDS011;7534;50.762;7.000;2023-06-14T09:02:14;3.08;;;2.50;;
14883;SDS011;7534;50.762;7.000;2023-06-14T09:04:42;3.58;;;2.53;;
14883;SDS011;7534;50.762;7.000;2023-06-14T09:07:09;2.95;;;2.25;;
14883;SDS011;7534;50.762;7.000;2023-06-14T09:09:41;3.03;;;2.72;;
14883;SDS011;7534;50.762;7.000;2023-06-14T09:12:10;6.35;;;3.20;;
14883;SDS011;7534;50.762;7.000;2023-06-14T09:14:37;3.47;;;2.50;;
14883;SDS011;7534;50.762;7.000;2023-06-14T09:17:05;4.55;;;2.45;;
14883;SDS011;7534;50.762;7.000;2023-06-14T09:19:33;2.45;;;2.25;;
14883;SDS011;7534;50.762;7.000;2023-06-14T09:22:01;3.60;;;2.78;;
14883;SDS011;7534;50.762;7.000;2023-06-14T09:24:29;2.47;;;2.28;;
14883;SDS011;7534;50.762;7.000;2023-06-14T09:26:54;2.67;;;2.50;;
14883;SDS011;7534;50.762;7.000;2023-06-14T09:29:20;2.67;;;2.47;;
14883;SDS011;7534;50.762;7.000;2023-06-14T09:31:46;2.75;;;2.55;;
14883;SDS011;7534;50.762;7.000;2023-06-14T09:34:12;2.55;;;2.30;;
14883;SDS011;7534;50.762;7.000;2023-06-14T09:36:39;2.97;;;2.53;;
14883;SDS011;7534;50.762;7.000;2023-06-14T09:39:05;2.58;;;2.38;;
14883;SDS011;7534;50.762;7.000;2023-06-14T09:41:37;2.97;;;2.60;;
14883;SDS011;7534;50.762;7.000;2023-06-14T09:44:08;4.03;;;2.65;;
14883;SDS011;7534;50.762;7.000;2023-06-14T09:46:36;2.55;;;2.30;;
14883;SDS011;7534;50.762;7.000;2023-06-14T09:49:03;2.58;;;2.20;;
14883;SDS011;7534;50.762;7.000;2023-06-14T09:51:30;2.60;;;2.40;;
14883;SDS011;7534;50.762;7.000;2023-06-14T09:54:00;3.10;;;2.60;;
14883;SDS011;7534;50.762;7.000;2023-06-14T09:56:34;2.75;;;2.55;;
14883;SDS011;7534;50.762;7.000;2023-06-14T09:59:04;2.30;;;2.13;;
14883;SDS011;7534;50.762;7.000;2023-06-14T10:01:32;2.85;;;2.50;;
14883;SDS011;7534;50.762;7.000;2023-06-14T10:04:02;3.15;;;2.95;;
14883;SDS011;7534;50.762;7.000;2023-06-14T10:06:30;2.80;;;2.60;;
14883;SDS011;7534;50.762;7.000;2023-06-14T10:08:58;2.83;;;2.60;;
14883;SDS011;7534;50.762;7.000;2023-06-14T10:11:25;2.70;;;2.50;;
14883;SDS011;7534;50.762;7.000;2023-06-14T10:13:56;3.10;;;2.60;;
14883;SDS011;7534;50.762;7.000;2023-06-14T10:16:30;4.85;;;2.58;;
14883;SDS011;7534;50.762;7.000;2023-06-14T10:19:34;2.53;;;2.33;;
14883;SDS011;7534;50.762;7.000;2023-06-14T10:22:11;4.03;;;2.50;;
14883;SDS011;7534;50.762;7.000;2023-06-14T10:24:45;3.30;;;2.55;;
14883;SDS011;7534;50.762;7.000;2023-06-14T10:27:14;2.83;;;2.50;;
14883;SDS011;7534;50.762;7.000;2023-06-14T10:32:17;4.65;;;2.80;;
14883;SDS011;7534;50.762;7.000;2023-06-14T10:34:44;3.83;;;2.88;;
14883;SDS011;7534;50.762;7.000;2023-06-14T10:37:13;3.42;;;2.30;;
14883;SDS011;7534;50.762;7.000;2023-06-14T10:39:43;3.15;;;2.50;;
14883;SDS011;7534;50.762;7.000;2023-06-14T10:42:10;2.50;;;2.30;;
14883;SDS011;7534;50.762;7.000;2023-06-14T10:47:25;4.18;;;2.60;;
14883;SDS011;7534;50.762;7.000;2023-06-14T10:50:04;5.75;;;2.75;;
14883;SDS011;7534;50.762;7.000;2023-06-14T10:52:34;3.53;;;2.42;;
14883;SDS011;7534;50.762;7.000;2023-06-14T10:55:09;2.88;;;2.50;;
14883;SDS011;7534;50.762;7.000;2023-06-14T11:00:17;2.75;;;2.45;;
14883;SDS011;7534;50.762;7.000;2023-06-14T11:02:58;3.37;;;2.60;;
14883;SDS011;7534;50.762;7.000;2023-06-14T11:06:15;4.93;;;2.65;;
14883;SDS011;7534;50.762;7.000;2023-06-14T11:09:12;3.00;;;2.63;;
14883;SDS011;7534;50.762;7.000;2023-06-14T11:12:15;2.53;;;2.30;;
14883;SDS011;7534;50.762;7.000;2023-06-14T11:14:46;3.63;;;2.33;;
14883;SDS011;7534;50.762;7.000;2023-06-14T11:17:13;3.45;;;2.40;;
14883;SDS011;7534;50.762;7.000;2023-06-14T11:19:39;3.90;;;2.15;;
14883;SDS011;7534;50.762;7.000;2023-06-14T11:22:04;3.00;;;2.38;;
14883;SDS011;7534;50.762;7.000;2023-06-14T11:24:32;2.65;;;2.42;;
14883;SDS011;7534;50.762;7.000;2023-06-14T11:26:58;3.75;;;2.40;;
14883;SDS011;7534;50.762;7.000;2023-06-14T11:29:23;2.35;;;2.20;;
14883;SDS011;7534;50.762;7.000;2023-06-14T11:31:50;3.17;;;2.40;;
14883;SDS011;7534;50.762;7.000;2023-06-14T11:34:17;2.97;;;2.50;;
14883;SDS011;7534;50.762;7.000;2023-06-14T11:36:42;3.00;;;2.40;;
14883;SDS011;7534;50.762;7.000;2023-06-14T11:39:09;3.42;;;2.35;;
14883;SDS011;7534;50.762;7.000;2023-06-14T11:41:38;3.70;;;2.60;;
14883;SDS011;7534;50.762;7.000;2023-06-14T11:44:09;2.70;;;2.50;;
14883;SDS011;7534;50.762;7.000;2023-06-14T11:46:36;2.53;;;2.20;;
14883;SDS011;7534;50.762;7.000;2023-06-14T11:49:03;2.60;;;2.10;;
14883;SDS011;7534;50.762;7.000;2023-06-14T11:51:33;4.13;;;2.60;;
14883;SDS011;7534;50.762;7.000;2023-06-14T11:54:01;2.75;;;2.38;;
14883;SDS011;7534;50.762;7.000;2023-06-14T11:56:29;2.42;;;2.30;;
14883;SDS011;7534;50.762;7.000;2023-06-14T11:58:57;3.03;;;2.45;;
14883;SDS011;7534;50.762;7.000;2023-06-14T12:01:23;3.90;;;2.50;;
14883;SDS011;7534;50.762;7.000;2023-06-14T12:03:51;3.38;;;2.20;;
14883;SDS011;7534;50.762;7.000;2023-06-14T12:06:26;3.90;;;2.60;;
14883;SDS011;7534;50.762;7.000;2023-06-14T12:08:55;3.85;;;2.28;;
14883;SDS011;7534;50.762;7.000;2023-06-14T12:11:22;4.07;;;2.53;;
14883;SDS011;7534;50.762;7.000;2023-06-14T12:13:48;2.50;;;2.30;;
14883;SDS011;7534;50.762;7.000;2023-06-14T12:16:15;2.50;;;2.30;;
14883;SDS011;7534;50.762;7.000;2023-06-14T12:18:41;1.90;;;1.80;;
14883;SDS011;7534;50.762;7.000;2023-06-14T12:21:08;2.17;;;1.88;;
14883;SDS011;7534;50.762;7.000;2023-06-14T12:23:39;2.15;;;1.95;;
14883;SDS011;7534;50.762;7.000;2023-06-14T12:26:15;2.28;;;2.00;;
14883;SDS011;7534;50.762;7.000;2023-06-14T12:28:47;1.80;;;1.70;;
14883;SDS011;7534;50.762;7.000;2023-06-14T12:31:14;3.45;;;1.85;;
14883;SDS011;7534;50.762;7.000;2023-06-14T12:33:41;2.40;;;2.08;;
14883;SDS011;7534;50.762;7.000;2023-06-14T12:36:08;4.63;;;2.00;;
14883;SDS011;7534;50.762;7.000;2023-06-14T12:38:35;2.15;;;2.05;;
14883;SDS011;7534;50.762;7.000;2023-06-14T12:41:02;4.28;;;2.00;;
14883;SDS011;7534;50.762;7.000;2023-06-14T12:43:29;1.90;;;1.80;;
14883;SDS011;7534;50.762;7.000;2023-06-14T12:45:55;3.20;;;2.00;;
14883;SDS011;7534;50.762;7.000;2023-06-14T12:48:20;4.03;;;2.08;;
14883;SDS011;7534;50.762;7.000;2023-06-14T12:50:47;1.95;;;1.80;;
14883;SDS011;7534;50.762;7.000;2023-06-14T12:53:13;3.40;;;1.98;;
14883;SDS011;7534;50.762;7.000;2023-06-14T12:55:39;2.28;;;1.90;;
14883;SDS011;7534;50.762;7.000;2023-06-14T12:58:05;1.90;;;1.70;;
14883;SDS011;7534;50.762;7.000;2023-06-14T13:00:32;2.78;;;1.90;;
14883;SDS011;7534;50.762;7.000;2023-06-14T13:02:57;1.90;;;1.80;;
14883;SDS011;7534;50.762;7.000;2023-06-14T13:05:23;2.90;;;2.08;;
14883;SDS011;7534;50.762;7.000;2023-06-14T13:07:50;4.45;;;1.85;;
14883;SDS011;7534;50.762;7.000;2023-06-14T13:10:16;2.08;;;1.90;;
14883;SDS011;7534;50.762;7.000;2023-06-14T13:12:42;4.03;;;1.70;;
14883;SDS011;7534;50.762;7.000;2023-06-14T13:15:09;3.20;;;1.85;;
14883;SDS011;7534;50.762;7.000;2023-06-14T13:17:35;1.83;;;1.73;;
14883;SDS011;7534;50.762;7.000;2023-06-14T13:20:04;2.05;;;1.83;;
14883;SDS011;7534;50.762;7.000;2023-06-14T13:22:34;2.47;;;2.00;;
14883;SDS011;7534;50.762;7.000;2023-06-14T13:25:00;2.65;;;2.00;;
14883;SDS011;7534;50.762;7.000;2023-06-14T13:27:27;2.50;;;2.03;;
14883;SDS011;7534;50.762;7.000;2023-06-14T13:29:53;2.83;;;1.95;;
14883;SDS011;7534;50.762;7.000;2023-06-14T13:32:20;2.30;;;2.10;;
14883;SDS011;7534;50.762;7.000;2023-06-14T13:34:47;3.97;;;1.83;;
14883;SDS011;7534;50.762;7.000;2023-06-14T13:37:14;3.90;;;2.17;;
14883;SDS011;7534;50.762;7.000;2023-06-14T13:39:40;3.42;;;2.30;;
14883;SDS011;7534;50.762;7.000;2023-06-14T13:42:06;2.72;;;2.30;;
14883;SDS011;7534;50.762;7.000;2023-06-14T13:44:32;5.32;;;2.40;;
14883;SDS011;7534;50.762;7.000;2023-06-14T13:46:58;2.80;;;2.60;;
14883;SDS011;7534;50.762;7.000;2023-06-14T13:49:27;3.03;;;2.50;;
14883;SDS011;7534;50.762;7.000;2023-06-14T13:51:53;2.40;;;2.20;;
14883;SDS011;7534;50.762;7.000;2023-06-14T13:54:22;2.70;;;2.30;;
14883;SDS011;7534;50.762;7.000;2023-06-14T13:56:48;3.88;;;2.58;;
14883;SDS011;7534;50.762;7.000;2023-06-14T13:59:14;2.50;;;2.35;;
14883;SDS011;7534;50.762;7.000;2023-06-14T14:01:40;3.10;;;2.55;;
14883;SDS011;7534;50.762;7.000;2023-06-14T14:04:06;2.85;;;2.60;;
14883;SDS011;7534;50.762;7.000;2023-06-14T14:06:32;4.55;;;2.45;;
14883;SDS011;7534;50.762;7.000;2023-06-14T14:08:58;2.50;;;2.30;;
14883;SDS011;7534;50.762;7.000;2023-06-14T14:11:23;2.35;;;2.15;;
14883;SDS011;7534;50.762;7.000;2023-06-14T14:13:49;2.45;;;2.20;;
14883;SDS011;7534;50.762;7.000;2023-06-14T14:16:15;3.40;;;2.33;;
14883;SDS011;7534;50.762;7.000;2023-06-14T14:18:41;2.70;;;2.50;;
14883;SDS011;7534;50.762;7.000;2023-06-14T14:21:07;3.45;;;2.33;;
14883;SDS011;7534;50.762;7.000;2023-06-14T14:23:32;2.75;;;2.28;;
14883;SDS011;7534;50.762;7.000;2023-06-14T14:25:58;4.80;;;2.60;;
14883;SDS011;7534;50.762;7.000;2023-06-14T14:28:25;2.85;;;2.50;;
14883;SDS011;7534;50.762;7.000;2023-06-14T14:30:51;3.50;;;2.38;;
14883;SDS011;7534;50.762;7.000;2023-06-14T14:33:18;3.53;;;2.45;;
14883;SDS011;7534;50.762;7.000;2023-06-14T14:35:44;2.53;;;2.30;;
14883;SDS011;7534;50.762;7.000;2023-06-14T14:38:12;2.55;;;2.35;;
14883;SDS011;7534;50.762;7.000;2023-06-14T14:40:40;2.35;;;2.25;;
14883;SDS011;7534;50.762;7.000;2023-06-14T14:43:06;4.10;;;2.63;;
14883;SDS011;7534;50.762;7.000;2023-06-14T14:45:33;3.25;;;2.30;;
14883;SDS011;7534;50.762;7.000;2023-06-14T14:48:00;2.90;;;2.33;;
14883;SDS011;7534;50.762;7.000;2023-06-14T14:50:27;3.67;;;2.40;;
14883;SDS011;7534;50.762;7.000;2023-06-14T14:52:52;2.40;;;2.30;;
14883;SDS011;7534;50.762;7.000;2023-06-14T14:55:18;3.38;;;2.45;;
14883;SDS011;7534;50.762;7.000;2023-06-14T14:57:45;2.50;;;2.30;;
14883;SDS011;7534;50.762;7.000;2023-06-14T15:00:13;2.97;;;2.55;;
14883;SDS011;7534;50.762;7.000;2023-06-14T15:02:39;2.80;;;2.60;;
14883;SDS011;7534;50.762;7.000;2023-06-14T15:05:05;3.13;;;2.40;;
14883;SDS011;7534;50.762;7.000;2023-06-14T15:07:31;2.40;;;2.20;;
14883;SDS011;7534;50.762;7.000;2023-06-14T15:09:58;4.10;;;2.42;;
14883;SDS011;7534;50.762;7.000;2023-06-14T15:12:27;3.17;;;2.40;;
14883;SDS011;7534;50.762;7.000;2023-06-14T15:14:52;3.30;;;2.40;;
14883;SDS011;7534;50.762;7.000;2023-06-14T15:17:19;2.83;;;2.60;;